Time;durP1;ratioP1;P1;durP2;ratioP2;P2;SDS_P1;SDS_P2;PMS_P1;PMS_P2;Temp;Humidity;BMP_temperature;BMP_pressure;BME280_temperature;BME280_humidity;BME280_pressure;Samples;Min_cycle;Max_cycle;Signal;HPM_P1;HPM_P2
2023/04/25 00:01:04;;;;;;;12.87;3.77;;;;;;;8.27;69.87;99207.88;5061540;28;20359;-79
2023/04/25 00:03:30;;;;;;;12.77;4.03;;;;;;;8.14;70.58;99216.47;5061659;28;20266;-79
2023/04/25 00:05:56;;;;;;;15.95;4.82;;;;;;;8.09;70.86;99197.44;5060391;28;21205;-80
2023/04/25 00:08:22;;;;;;;13.07;3.70;;;;;;;8.17;70.86;99199.66;5060939;28;20485;-80
2023/04/25 00:10:48;;;;;;;12.95;5.30;;;;;;;8.29;70.59;99202.16;5059839;28;20393;-79
2023/04/25 00:13:14;;;;;;;10.32;4.90;;;;;;;8.07;70.97;99214.00;5060533;28;20037;-79
2023/04/25 00:15:41;;;;;;;10.80;4.88;;;;;;;8.26;70.32;99217.09;5059688;28;20028;-79
2023/04/25 00:18:06;;;;;;;16.90;5.25;;;;;;;8.33;70.35;99207.88;5061293;28;20028;-80
2023/04/25 00:20:32;;;;;;;13.07;4.38;;;;;;;8.43;70.27;99207.13;5060179;28;20032;-79
2023/04/25 00:22:57;;;;;;;9.87;3.63;;;;;;;8.34;70.59;99209.53;5089645;28;20041;-79
2023/04/25 00:25:22;;;;;;;11.40;3.43;;;;;;;8.33;70.87;99211.44;5060712;28;21507;-79
2023/04/25 00:27:47;;;;;;;15.73;5.03;;;;;;;8.40;70.85;99213.91;5060860;28;20268;-79
2023/04/25 00:30:13;;;;;;;8.40;4.10;;;;;;;8.46;70.52;99214.75;5059379;28;20265;-79
2023/04/25 00:32:39;;;;;;;9.65;4.05;;;;;;;8.48;70.42;99212.59;5059050;28;21134;-79
2023/04/25 00:35:04;;;;;;;14.52;4.55;;;;;;;8.57;70.45;99212.91;5059216;28;20028;-79
2023/04/25 00:37:30;;;;;;;13.20;4.25;;;;;;;8.76;69.33;99213.28;5060207;28;20024;-79
2023/04/25 00:39:57;;;;;;;17.30;5.85;;;;;;;8.73;69.56;99211.91;5059699;28;20047;-79
2023/04/25 00:42:22;;;;;;;11.85;4.03;;;;;;;8.56;70.22;99216.69;5060224;28;20840;-80
2023/04/25 00:44:48;;;;;;;16.52;5.25;;;;;;;8.68;70.38;99217.34;5059945;28;20036;-79
2023/04/25 00:47:14;;;;;;;12.63;5.97;;;;;;;8.66;70.39;99215.97;5060439;28;20032;-79
2023/04/25 00:49:40;;;;;;;14.73;5.22;;;;;;;8.60;70.16;99212.41;5059220;28;20031;-79
2023/04/25 00:52:05;;;;;;;16.63;4.97;;;;;;;8.58;70.50;99207.25;5060379;28;20033;-79
2023/04/25 00:54:30;;;;;;;15.35;5.05;;;;;;;8.60;70.70;99212.41;5059781;28;20480;-80
2023/04/25 00:56:56;;;;;;;13.30;4.97;;;;;;;8.59;69.92;99205.31;5059250;28;20017;-79
2023/04/25 00:59:21;;;;;;;14.40;5.47;;;;;;;8.41;71.01;99210.09;5059667;28;20039;-80
2023/04/25 01:01:47;;;;;;;10.68;4.55;;;;;;;8.24;71.90;99211.09;5059373;28;20047;-79
2023/04/25 01:04:13;;;;;;;14.50;5.75;;;;;;;8.26;72.23;99217.09;5060196;28;20067;-79
2023/04/25 01:06:38;;;;;;;13.77;4.75;;;;;;;8.41;71.76;99212.81;5059359;28;20047;-79
2023/04/25 01:09:05;;;;;;;13.23;4.47;;;;;;;8.62;70.92;99212.97;5058915;28;20083;-80
2023/04/25 01:11:30;;;;;;;12.23;5.90;;;;;;;8.53;71.19;99213.44;5059554;28;20077;-79
2023/04/25 01:13:55;;;;;;;17.15;4.75;;;;;;;8.56;71.54;99222.13;5059114;28;20044;-79
2023/04/25 01:16:23;;;;;;;17.03;4.03;;;;;;;8.41;71.36;99210.09;5058685;28;20047;-80
2023/04/25 01:18:50;;;;;;;13.02;3.72;;;;;;;8.42;72.08;99211.72;5059288;28;20253;-79
2023/04/25 01:21:15;;;;;;;18.48;5.10;;;;;;;8.53;71.76;99213.44;5059125;28;20028;-79
2023/04/25 01:23:41;;;;;;;10.23;4.70;;;;;;;8.37;71.92;99209.81;5059905;28;20031;-79
2023/04/25 01:26:09;;;;;;;18.60;5.25;;;;;;;8.64;71.67;99213.50;5058208;28;20091;-79
2023/04/25 01:28:34;;;;;;;15.48;4.88;;;;;;;8.67;72.03;99215.69;5058590;28;20656;-80
2023/04/25 01:31:01;;;;;;;13.10;4.38;;;;;;;8.63;72.00;99212.69;5059407;28;20032;-81
2023/04/25 01:33:26;;;;;;;12.38;4.90;;;;;;;8.74;71.80;99219.00;5057990;28;20045;-79
2023/04/25 01:35:51;;;;;;;13.93;5.38;;;;;;;8.76;71.65;99213.28;5058612;28;20031;-79
2023/04/25 01:38:17;;;;;;;10.80;6.07;;;;;;;8.75;71.70;99215.19;5059095;28;20098;-79
2023/04/25 01:40:45;;;;;;;14.50;7.47;;;;;;;8.64;71.92;99216.22;5058387;28;20044;-79
2023/04/25 01:43:11;;;;;;;15.77;6.18;;;;;;;8.64;73.01;99225.19;5060487;28;20048;-79
2023/04/25 01:45:41;;;;;;;15.07;4.13;;;;;;;8.70;72.33;99222.50;5057765;28;20053;-80
2023/04/25 01:48:12;;;;;;;10.65;4.97;;;;;;;8.56;73.30;99225.69;5056991;28;20036;-79
2023/04/25 01:50:38;;;;;;;10.20;4.38;;;;;;;8.53;73.60;99220.75;5059065;28;20557;-79
2023/04/25 01:53:04;;;;;;;14.43;4.28;;;;;;;8.57;73.58;99227.31;5060935;28;20106;-79
2023/04/25 01:55:30;;;;;;;13.88;6.20;;;;;;;8.37;74.03;99234.28;5058436;28;20585;-79
2023/04/25 01:57:55;;;;;;;12.10;4.25;;;;;;;8.46;74.30;99236.50;5059394;28;20085;-80
2023/04/25 02:00:21;;;;;;;15.57;5.53;;;;;;;8.47;74.01;99229.97;5059045;28;20075;-79
2023/04/25 02:02:46;;;;;;;13.52;4.45;;;;;;;8.58;73.98;99236.31;5058268;28;20023;-79
2023/04/25 02:05:11;;;;;;;15.98;6.30;;;;;;;8.58;73.63;99241.75;5058620;28;20579;-79
2023/04/25 02:07:37;;;;;;;10.48;5.32;;;;;;;8.75;72.99;99236.91;5058802;28;20516;-80
2023/04/25 02:10:03;;;;;;;16.70;6.18;;;;;;;8.78;73.09;99242.91;5059588;28;20063;-80
2023/04/25 02:12:28;;;;;;;14.75;5.25;;;;;;;8.56;73.13;99233.81;5058414;28;20029;-79
2023/04/25 02:14:54;;;;;;;20.85;8.20;;;;;;;8.47;73.76;99238.94;5058453;28;20020;-79
2023/04/25 02:17:21;;;;;;;12.30;5.70;;;;;;;8.56;73.54;99249.31;5059190;28;20461;-79
2023/04/25 02:19:46;;;;;;;16.27;5.63;;;;;;;8.36;74.04;99239.97;5058762;28;20032;-79
2023/04/25 02:22:11;;;;;;;15.32;7.38;;;;;;;8.20;74.30;99250.72;5058926;28;20032;-80
2023/04/25 02:24:37;;;;;;;11.25;6.10;;;;;;;8.20;74.18;99245.28;5058356;28;20075;-79
2023/04/25 02:27:02;;;;;;;11.23;6.20;;;;;;;8.37;74.41;99252.47;5058854;28;20618;-80
2023/04/25 02:29:28;;;;;;;13.35;5.15;;;;;;;8.29;74.65;99251.06;5059824;28;20020;-80
2023/04/25 02:31:54;;;;;;;16.38;6.57;;;;;;;8.20;74.70;99258.88;5058166;28;20078;-80
2023/04/25 02:34:19;;;;;;;12.18;5.05;;;;;;;8.24;74.13;99251.84;5058214;28;20090;-80
2023/04/25 02:36:45;;;;;;;16.52;6.43;;;;;;;8.18;74.72;99253.69;5058045;28;20036;-79
2023/04/25 02:39:10;;;;;;;10.67;4.80;;;;;;;8.21;74.88;99260.53;5059298;28;20028;-79
2023/04/25 02:41:35;;;;;;;20.80;8.88;;;;;;;8.25;75.21;99256.19;5056984;28;20623;-80
2023/04/25 02:44:01;;;;;;;13.90;5.90;;;;;;;8.33;74.62;99257.59;5059514;28;20043;-78
2023/04/25 02:46:26;;;;;;;11.03;5.23;;;;;;;8.18;74.10;99253.69;5061739;28;20269;-79
2023/04/25 02:48:51;;;;;;;12.60;4.70;;;;;;;8.21;74.82;99262.41;5060975;28;20261;-79
2023/04/25 02:51:17;;;;;;;14.63;6.37;;;;;;;8.31;74.69;99264.38;5061840;28;20293;-79
2023/04/25 02:53:42;;;;;;;16.10;6.13;;;;;;;8.44;74.67;99261.19;5061683;28;20273;-80
2023/04/25 02:56:07;;;;;;;23.73;8.60;;;;;;;8.43;73.75;99251.41;5060568;28;20119;-80
2023/04/25 02:58:32;;;;;;;15.27;6.18;;;;;;;8.56;73.86;99252.03;5060447;28;20037;-80
2023/04/25 03:00:58;;;;;;;13.00;6.45;;;;;;;8.48;73.67;99256.06;5063960;28;20036;-80
2023/04/25 03:03:23;;;;;;;16.93;5.77;;;;;;;8.56;73.67;99250.13;5061192;28;20456;-80
2023/04/25 03:05:50;;;;;;;16.10;6.63;;;;;;;8.53;73.99;99254.19;5062037;28;20284;-80
2023/04/25 03:08:16;;;;;;;15.38;8.15;;;;;;;8.43;74.36;99272.31;5061383;28;20040;-79
2023/04/25 03:10:41;;;;;;;13.52;5.30;;;;;;;8.40;75.18;99268.25;5062281;28;20035;-79
2023/04/25 03:13:06;;;;;;;10.10;5.10;;;;;;;8.36;75.20;99272.56;5061569;28;20043;-80
2023/04/25 03:15:31;;;;;;;14.70;6.00;;;;;;;8.34;75.65;99278.25;5061166;28;20884;-80
2023/04/25 03:17:57;;;;;;;14.80;5.67;;;;;;;8.40;75.61;99268.25;5062292;28;20052;-79
2023/04/25 03:20:22;;;;;;;14.73;6.60;;;;;;;8.56;74.43;99260.19;5062257;28;20284;-80
2023/04/25 03:22:47;;;;;;;14.10;5.53;;;;;;;8.57;74.56;99267.25;5062606;28;20262;-79
2023/04/25 03:25:13;;;;;;;13.68;5.15;;;;;;;8.60;74.87;99272.19;5061502;28;20481;-79
2023/04/25 03:27:38;;;;;;;22.55;4.88;;;;;;;8.55;74.83;99270.22;5060636;28;20133;-79
2023/04/25 03:30:04;;;;;;;11.70;4.70;;;;;;;8.64;74.68;99259.72;5061455;28;20090;-79
2023/04/25 03:32:29;;;;;;;18.80;6.47;;;;;;;8.68;74.64;99271.69;5058633;28;20342;-78
2023/04/25 03:34:55;;;;;;;14.85;4.88;;;;;;;8.62;74.76;99270.03;5061303;28;20048;-79
2023/04/25 03:37:20;;;;;;;18.35;7.15;;;;;;;8.79;74.62;99274.47;5059916;28;20117;-79
2023/04/25 03:39:45;;;;;;;12.85;6.43;;;;;;;8.70;74.74;99279.56;5058850;28;20053;-79
2023/04/25 03:42:11;;;;;;;14.50;6.13;;;;;;;8.63;74.91;99283.34;5059898;28;20059;-79
2023/04/25 03:44:36;;;;;;;19.30;6.60;;;;;;;8.48;75.23;99286.75;5060015;28;20273;-78
2023/04/25 03:47:01;;;;;;;13.93;5.53;;;;;;;8.48;75.12;99286.75;5060519;28;20860;-79
2023/04/25 03:49:26;;;;;;;16.65;6.18;;;;;;;8.43;75.39;99289.44;5061458;28;20288;-80
2023/04/25 03:51:52;;;;;;;12.15;5.38;;;;;;;8.45;75.37;99292.72;5061976;28;20045;-79
2023/04/25 03:54:17;;;;;;;15.10;6.13;;;;;;;8.49;75.32;99288.41;5060936;28;20040;-79
2023/04/25 03:56:42;;;;;;;17.07;6.70;;;;;;;8.53;74.97;99292.22;5059373;28;20111;-79
2023/04/25 03:59:07;;;;;;;12.60;6.27;;;;;;;8.60;74.99;99289.28;5061093;28;20311;-80
2023/04/25 04:01:33;;;;;;;17.92;7.18;;;;;;;8.62;75.12;99286.31;5061558;28;20265;-80
2023/04/25 04:03:58;;;;;;;14.93;7.10;;;;;;;8.67;74.62;99289.06;5061092;28;20029;-80
2023/04/25 04:06:23;;;;;;;10.80;5.65;;;;;;;8.43;75.47;99297.59;5059677;28;20039;-79
2023/04/25 04:08:48;;;;;;;17.17;6.20;;;;;;;8.51;74.60;99302.53;5060345;28;20033;-80
2023/04/25 04:11:14;;;;;;;14.17;6.60;;;;;;;8.26;75.75;99290.41;5060488;28;20277;-79
2023/04/25 04:13:39;;;;;;;14.53;6.17;;;;;;;8.11;76.35;99299.28;5060325;28;20412;-79
2023/04/25 04:16:05;;;;;;;18.92;6.57;;;;;;;8.17;76.17;99297.41;5060301;28;20292;-80
2023/04/25 04:18:30;;;;;;;15.75;7.00;;;;;;;8.13;75.41;99296.31;5060037;28;20040;-79
2023/04/25 04:20:57;;;;;;;13.90;5.97;;;;;;;8.36;75.12;99299.72;5061012;28;20028;-80
2023/04/25 04:23:23;;;;;;;12.07;6.13;;;;;;;8.45;74.84;99308.19;5060552;28;20043;-79
2023/04/25 04:25:48;;;;;;;16.73;5.83;;;;;;;8.39;74.52;99304.63;5089296;28;20040;-80
2023/04/25 04:28:13;;;;;;;11.27;4.77;;;;;;;8.01;74.44;99319.03;5060184;28;20270;-80
2023/04/25 04:30:39;;;;;;;13.77;4.17;;;;;;;7.98;74.41;99322.25;5059876;28;20262;-80
2023/04/25 04:33:04;;;;;;;12.07;3.85;;;;;;;8.02;73.17;99314.41;5060604;28;20257;-80
2023/04/25 04:35:30;;;;;;;11.60;3.78;;;;;;;7.91;72.00;99318.94;5059251;28;20031;-80
2023/04/25 04:37:56;;;;;;;14.82;4.18;;;;;;;7.92;70.62;99323.28;5060338;28;20036;-80
2023/04/25 04:40:21;;;;;;;10.35;2.80;;;;;;;7.94;71.52;99330.09;5058566;28;20577;-79
2023/04/25 04:42:47;;;;;;;8.70;2.83;;;;;;;7.85;70.90;99336.25;5059845;28;20056;-79
2023/04/25 04:45:13;;;;;;;4.90;1.88;;;;;;;7.63;71.58;99331.69;5059535;28;20036;-79
2023/04/25 04:47:39;;;;;;;8.50;2.58;;;;;;;7.58;72.67;99340.59;5059482;28;20051;-80
2023/04/25 04:50:07;;;;;;;6.53;2.47;;;;;;;7.63;71.93;99337.13;5059868;28;20043;-79
2023/04/25 04:52:32;;;;;;;12.43;2.83;;;;;;;7.82;71.86;99341.13;5059078;28;20083;-79
2023/04/25 04:54:57;;;;;;;9.77;2.70;;;;;;;7.92;70.97;99339.56;5059901;28;20120;-80
2023/04/25 04:57:22;;;;;;;14.88;3.45;;;;;;;7.99;71.09;99334.75;5060335;28;20050;-79
2023/04/25 04:59:48;;;;;;;10.50;3.20;;;;;;;8.05;70.08;99341.84;5059543;28;20591;-79
2023/04/25 05:02:13;;;;;;;8.10;2.75;;;;;;;8.09;70.58;99339.44;5059190;28;20254;-78
2023/04/25 05:04:39;;;;;;;17.73;4.38;;;;;;;8.07;70.96;99347.03;5058982;28;20036;-81
2023/04/25 05:07:04;;;;;;;11.35;2.55;;;;;;;8.01;71.24;99348.91;5059155;28;20120;-78
2023/04/25 05:09:29;;;;;;;8.17;3.27;;;;;;;7.90;71.48;99347.97;5059749;28;20672;-80
2023/04/25 05:11:55;;;;;;;9.90;3.20;;;;;;;7.96;71.13;99351.53;5059721;28;20253;-79
2023/04/25 05:14:21;;;;;;;8.70;3.65;;;;;;;7.99;71.32;99352.94;5059458;28;20071;-79
2023/04/25 05:16:47;;;;;;;9.18;3.00;;;;;;;8.06;71.29;99354.34;5059615;28;20026;-80
2023/04/25 05:19:12;;;;;;;9.40;3.00;;;;;;;7.92;71.21;99361.28;5059730;28;20040;-79
2023/04/25 05:21:38;;;;;;;9.93;3.50;;;;;;;7.95;71.46;99366.22;5059422;28;20032;-80
2023/04/25 05:24:03;;;;;;;21.90;6.10;;;;;;;8.00;71.09;99363.53;5057799;28;20029;-80
2023/04/25 05:26:30;;;;;;;10.13;3.90;;;;;;;7.99;71.55;99370.03;5057672;28;20300;-80
2023/04/25 05:28:57;;;;;;;10.63;2.72;;;;;;;8.12;70.70;99376.09;5060611;28;20028;-79
2023/04/25 05:31:22;;;;;;;11.77;3.92;;;;;;;8.14;70.40;99384.81;5059046;28;20550;-79
2023/04/25 05:33:47;;;;;;;16.90;5.33;;;;;;;8.19;70.47;99379.44;5058540;28;20032;-80
2023/04/25 05:36:12;;;;;;;9.27;2.43;;;;;;;8.06;70.95;99378.78;5059284;28;20662;-80
2023/04/25 05:38:37;;;;;;;16.37;4.50;;;;;;;8.00;71.17;99390.69;5059581;28;20340;-79
2023/04/25 05:41:03;;;;;;;16.93;4.03;;;;;;;8.18;70.81;99389.47;5059675;28;20279;-79
2023/04/25 05:43:28;;;;;;;9.80;3.50;;;;;;;8.21;70.76;99396.31;5058250;28;20260;-79
2023/04/25 05:45:53;;;;;;;10.53;3.63;;;;;;;8.24;70.82;99398.50;5060012;28;20110;-79
2023/04/25 05:48:18;;;;;;;12.27;4.28;;;;;;;8.34;70.89;99405.91;5058686;28;20269;-79
2023/04/25 05:50:44;;;;;;;15.27;3.90;;;;;;;8.48;70.44;99394.63;5059452;28;20032;-79
2023/04/25 05:53:09;;;;;;;13.05;5.32;;;;;;;8.39;71.10;99400.53;5059042;28;20261;-79
2023/04/25 05:55:34;;;;;;;11.37;4.20;;;;;;;8.40;71.41;99393.22;5057107;28;20974;-80
2023/04/25 05:58:00;;;;;;;16.40;4.55;;;;;;;8.44;71.56;99410.59;5058989;28;20256;-79
2023/04/25 06:00:25;;;;;;;13.68;4.45;;;;;;;8.44;72.09;99405.16;5059258;28;20052;-79
2023/04/25 06:02:50;;;;;;;11.75;5.22;;;;;;;8.58;71.65;99407.50;5058929;28;20090;-78
2023/04/25 06:05:16;;;;;;;15.27;4.28;;;;;;;8.70;71.03;99405.41;5059361;28;20036;-79
2023/04/25 06:07:41;;;;;;;19.60;6.22;;;;;;;8.67;71.41;99405.91;5057772;28;20766;-79
2023/04/25 06:10:07;;;;;;;16.73;4.47;;;;;;;8.63;72.04;99411.06;5059294;28;20424;-79
2023/04/25 06:12:33;;;;;;;12.57;4.03;;;;;;;8.71;71.55;99417.91;5058591;28;20037;-80
2023/04/25 06:14:59;;;;;;;24.48;6.28;;;;;;;8.70;71.78;99412.75;5058739;28;20040;-79
2023/04/25 06:17:24;;;;;;;12.68;4.78;;;;;;;8.70;71.94;99421.72;5058955;28;20091;-79
2023/04/25 06:19:49;;;;;;;12.23;5.60;;;;;;;8.78;71.77;99411.44;5060820;28;20124;-79
2023/04/25 06:22:14;;;;;;;15.00;3.93;;;;;;;8.80;71.29;99420.97;5063628;28;20265;-79
2023/04/25 06:24:40;;;;;;;11.73;4.77;;;;;;;8.96;71.19;99423.78;5063085;28;20840;-79
2023/04/25 06:27:05;;;;;;;14.33;5.60;;;;;;;8.99;71.67;99426.78;5061807;28;20269;-79
2023/04/25 06:29:30;;;;;;;16.17;5.30;;;;;;;9.05;70.60;99419.47;5062120;28;20264;-81
2023/04/25 06:31:56;;;;;;;16.95;5.75;;;;;;;8.99;71.45;99420.53;5062982;28;20817;-80
2023/04/25 06:34:22;;;;;;;16.90;6.10;;;;;;;8.97;71.76;99418.06;5061691;28;20036;-79
2023/04/25 06:36:47;;;;;;;23.83;5.53;;;;;;;8.98;71.03;99425.16;5062722;28;20040;-80
2023/04/25 06:39:12;;;;;;;14.27;6.20;;;;;;;8.81;71.24;99419.06;5062426;28;20257;-79
2023/04/25 06:41:37;;;;;;;17.97;5.43;;;;;;;8.62;71.98;99425.72;5062869;28;20807;-79
2023/04/25 06:44:03;;;;;;;17.15;6.00;;;;;;;8.84;70.51;99418.53;5062530;28;20300;-78
2023/04/25 06:46:28;;;;;;;22.83;6.73;;;;;;;8.75;71.07;99426.34;5061403;28;20600;-79
2023/04/25 06:48:53;;;;;;;14.25;5.60;;;;;;;8.75;71.27;99432.63;5062532;28;20261;-78
2023/04/25 06:51:19;;;;;;;19.05;6.32;;;;;;;8.70;71.73;99429.88;5061481;28;20470;-80
2023/04/25 06:53:44;;;;;;;15.40;5.80;;;;;;;8.92;71.06;99436.25;5061932;28;20063;-79
2023/04/25 06:56:09;;;;;;;14.40;7.17;;;;;;;8.90;70.81;99438.41;5062064;28;20402;-78
2023/04/25 06:58:35;;;;;;;13.52;5.72;;;;;;;8.86;69.70;99432.69;5061117;28;20284;-79
2023/04/25 07:01:00;;;;;;;24.93;8.27;;;;;;;9.03;69.11;99437.16;5060949;28;20033;-80
2023/04/25 07:03:25;;;;;;;16.10;7.80;;;;;;;9.06;68.91;99442.06;5062048;28;20303;-85
2023/04/25 07:05:50;;;;;;;18.25;6.82;;;;;;;9.19;68.33;99438.88;5061256;28;20277;-78
2023/04/25 07:08:16;;;;;;;10.03;4.83;;;;;;;9.17;67.34;99438.31;5091459;28;20033;-79
2023/04/25 07:10:42;;;;;;;14.00;6.35;;;;;;;9.06;66.91;99439.34;5061107;28;20308;-78
2023/04/25 07:13:07;;;;;;;13.00;6.82;;;;;;;9.40;67.17;99455.31;5061872;28;20116;-79
2023/04/25 07:15:33;;;;;;;17.17;6.73;;;;;;;9.21;68.24;99447.59;5060552;28;20033;-79
2023/04/25 07:17:58;;;;;;;24.00;6.78;;;;;;;9.42;66.42;99449.59;5062131;28;20631;-77
2023/04/25 07:20:23;;;;;;;20.60;5.93;;;;;;;9.48;67.41;99448.53;5060310;28;20033;-77
2023/04/25 07:22:49;;;;;;;13.13;5.80;;;;;;;9.22;67.45;99454.69;5062453;28;20253;-83
2023/04/25 07:25:15;;;;;;;16.25;6.57;;;;;;;9.16;67.94;99458.44;5061636;28;20032;-82
2023/04/25 07:27:40;;;;;;;20.80;6.75;;;;;;;9.16;67.49;99458.44;5061112;28;20051;-79
2023/04/25 07:30:06;;;;;;;17.60;5.93;;;;;;;9.17;67.49;99454.63;5060447;28;20074;-81
2023/04/25 07:32:31;;;;;;;17.33;5.25;;;;;;;9.07;68.20;99468.19;5060834;28;21514;-81
2023/04/25 07:34:57;;;;;;;16.60;6.40;;;;;;;9.11;68.25;99461.16;5063203;28;20127;-83
2023/04/25 07:37:22;;;;;;;13.13;5.00;;;;;;;9.29;67.62;99472.66;5063083;28;20281;-81
2023/04/25 07:39:48;;;;;;;15.40;6.43;;;;;;;9.50;66.54;99478.22;5060266;28;20338;-82
2023/04/25 07:42:13;;;;;;;10.80;5.13;;;;;;;9.56;66.63;99468.97;5061345;28;20116;-82
2023/04/25 07:44:39;;;;;;;22.80;7.07;;;;;;;9.58;66.93;99474.97;5060183;28;20033;-83
2023/04/25 07:47:09;;;;;;;19.00;4.85;;;;;;;9.74;66.51;99472.34;5060309;28;20284;-82
2023/04/25 07:49:36;;;;;;;12.80;3.60;;;;;;;9.83;64.52;99481.63;5061061;28;20033;-82
2023/04/25 07:52:02;;;;;;;13.82;3.97;;;;;;;9.72;64.97;99479.94;5062103;28;20028;-81
2023/04/25 07:54:28;;;;;;;11.63;4.85;;;;;;;9.34;65.42;99478.13;5058275;28;20032;-79
2023/04/25 07:56:53;;;;;;;10.68;4.35;;;;;;;9.39;64.43;99483.63;5061135;28;20089;-84
2023/04/25 07:59:19;;;;;;;18.20;4.07;;;;;;;9.68;64.79;99485.91;5061684;28;20040;-83
2023/04/25 08:01:44;;;;;;;8.38;3.53;;;;;;;9.67;64.84;99481.56;5061326;28;20955;-83
2023/04/25 08:04:10;;;;;;;8.77;3.60;;;;;;;9.80;64.27;99493.84;5061031;28;20072;-84
2023/04/25 08:06:35;;;;;;;9.77;3.83;;;;;;;9.67;62.43;99495.19;5061220;28;20044;-83
2023/04/25 08:09:01;;;;;;;17.42;3.90;;;;;;;9.54;63.86;99504.63;5060967;28;20029;-83
2023/04/25 08:11:26;;;;;;;10.15;3.22;;;;;;;9.85;63.61;99506.69;5060239;28;20131;-83
2023/04/25 08:13:51;;;;;;;13.10;5.17;;;;;;;10.00;62.62;99522.28;5060588;28;20055;-82
2023/04/25 08:16:17;;;;;;;20.17;4.67;;;;;;;10.07;60.87;99524.72;5060912;28;20774;-83
2023/04/25 08:18:42;;;;;;;18.65;4.25;;;;;;;10.08;60.30;99526.38;5061576;28;20326;-84
2023/04/25 08:21:08;;;;;;;9.10;3.23;;;;;;;10.08;59.89;99531.00;5060732;28;20097;-84
2023/04/25 08:23:34;;;;;;;12.57;3.75;;;;;;;9.98;59.80;99532.59;5061097;28;20332;-82
2023/04/25 08:25:59;;;;;;;6.97;2.97;;;;;;;9.93;61.12;99529.84;5088867;28;20573;-83
2023/04/25 08:28:24;;;;;;;8.65;2.92;;;;;;;10.01;61.54;99533.97;5061323;28;20029;-84
2023/04/25 08:30:50;;;;;;;9.07;2.97;;;;;;;9.95;58.98;99545.91;5061493;28;20036;-81
2023/04/25 08:33:15;;;;;;;7.80;3.25;;;;;;;9.98;60.70;99539.94;5059907;28;20262;-82
2023/04/25 08:35:40;;;;;;;10.40;3.47;;;;;;;9.90;58.97;99544.84;5059977;28;20033;-82
2023/04/25 08:38:06;;;;;;;15.93;2.65;;;;;;;10.00;58.74;99551.41;5061034;28;20270;-82
2023/04/25 08:40:37;;;;;;;9.75;3.25;;;;;;;10.07;58.28;99546.50;5059372;28;20091;-82
2023/04/25 08:43:03;;;;;;;9.23;2.83;;;;;;;10.30;58.53;99555.31;5059863;28;20062;-81
2023/04/25 08:45:31;;;;;;;8.52;2.38;;;;;;;10.38;58.12;99552.06;5059649;28;20044;-82
2023/04/25 08:47:58;;;;;;;5.93;2.22;;;;;;;10.62;56.68;99557.03;5059840;28;20120;-82
2023/04/25 08:50:26;;;;;;;17.95;5.00;;;;;;;10.74;57.37;99553.25;5059966;28;20044;-82
2023/04/25 08:52:53;;;;;;;13.32;3.50;;;;;;;10.69;56.32;99561.41;5060384;28;20428;-82
2023/04/25 08:55:20;;;;;;;6.97;2.85;;;;;;;10.47;57.00;99565.19;5058562;28;20047;-83
2023/04/25 08:57:47;;;;;;;8.88;2.17;;;;;;;10.12;55.04;99570.25;5060224;28;20094;-83
2023/04/25 09:00:13;;;;;;;10.65;2.13;;;;;;;10.18;56.66;99579.25;5060223;28;20039;-83
2023/04/25 09:02:43;;;;;;;7.32;2.58;;;;;;;10.13;57.39;99578.13;5060689;28;20028;-85
2023/04/25 09:05:09;;;;;;;7.82;2.90;;;;;;;9.93;57.28;99576.13;5059641;28;20029;-84
2023/04/25 09:07:35;;;;;;;11.23;3.17;;;;;;;10.12;57.71;99587.41;5061689;28;20045;-84
2023/04/25 09:10:03;;;;;;;12.70;3.55;;;;;;;10.01;57.50;99582.97;5060428;28;20039;-84
2023/04/25 09:12:29;;;;;;;14.00;3.28;;;;;;;10.19;56.25;99592.59;5060368;28;20063;-84
2023/04/25 09:15:06;;;;;;;8.38;3.20;;;;;;;10.31;56.15;99594.28;5060959;28;20119;-83
2023/04/25 09:17:32;;;;;;;13.65;3.97;;;;;;;10.53;56.66;99596.84;5059887;28;20120;-83
2023/04/25 09:20:12;;;;;;;7.88;2.38;;;;;;;10.68;54.20;99596.03;5089321;28;20119;-80
2023/04/25 09:22:38;;;;;;;8.77;3.00;;;;;;;10.96;53.80;99593.09;5061072;28;20068;-82
2023/04/25 09:25:11;;;;;;;12.40;2.22;;;;;;;11.11;52.01;99599.63;5060062;28;20078;-84
2023/04/25 09:27:36;;;;;;;6.63;2.45;;;;;;;11.13;53.33;99603.72;5060940;28;20117;-84
2023/04/25 09:30:02;;;;;;;11.88;2.70;;;;;;;11.27;51.79;99592.28;5060443;28;20029;-84
2023/04/25 09:32:28;;;;;;;8.80;2.65;;;;;;;11.20;50.69;99593.38;5059571;28;20877;-84
2023/04/25 09:34:55;;;;;;;11.25;2.33;;;;;;;11.10;51.72;99601.56;5059467;28;20032;-86
2023/04/25 09:37:25;;;;;;;5.80;1.80;;;;;;;11.17;50.04;99604.00;5059856;28;20032;-86
2023/04/25 09:39:54;;;;;;;7.85;2.65;;;;;;;11.35;50.19;99610.03;5060103;28;20510;-82
2023/04/25 09:42:23;;;;;;;7.40;2.50;;;;;;;11.33;50.32;99608.38;5058944;28;20033;-80
2023/04/25 09:44:52;;;;;;;7.63;2.25;;;;;;;11.24;49.89;99610.03;5059795;28;20036;-83
2023/04/25 09:47:17;;;;;;;4.50;1.63;;;;;;;11.25;49.68;99616.31;5060075;28;20032;-82
2023/04/25 09:49:43;;;;;;;4.65;1.88;;;;;;;11.32;49.94;99625.84;5058480;28;20040;-83
2023/04/25 09:52:14;;;;;;;6.70;1.73;;;;;;;11.60;49.56;99622.81;5059777;28;20465;-83
2023/04/25 09:54:39;;;;;;;16.27;2.03;;;;;;;11.67;49.41;99617.09;5063334;28;20058;-82
2023/04/25 09:57:10;;;;;;;9.65;2.08;;;;;;;11.49;49.43;99616.53;5064436;28;20155;-83
2023/04/25 09:59:38;;;;;;;6.00;1.73;;;;;;;11.43;50.58;99618.47;5062447;28;20029;-81
2023/04/25 10:02:06;;;;;;;12.15;2.35;;;;;;;11.51;51.50;99625.28;5062881;28;20470;-85
2023/04/25 10:04:34;;;;;;;7.75;2.08;;;;;;;11.46;51.37;99629.91;5062530;28;20037;-83
2023/04/25 10:07:01;;;;;;;6.10;1.80;;;;;;;11.56;51.64;99635.38;5064190;28;20029;-82
2023/04/25 10:09:33;;;;;;;9.82;1.73;;;;;;;11.53;49.72;99634.00;5063750;28;20032;-82
2023/04/25 10:11:59;;;;;;;16.25;2.70;;;;;;;11.54;49.24;99630.19;5063910;28;20048;-83
2023/04/25 10:14:26;;;;;;;11.27;1.60;;;;;;;11.42;49.09;99638.69;5063030;28;20557;-82
2023/04/25 10:16:53;;;;;;;7.05;1.73;;;;;;;11.59;49.42;99639.47;5062962;28;20541;-82
2023/04/25 10:19:20;;;;;;;4.65;1.70;;;;;;;11.47;48.95;99645.22;5062959;28;20059;-84
2023/04/25 10:21:55;;;;;;;11.38;2.10;;;;;;;11.39;49.74;99649.31;5062742;28;20056;-83
2023/04/25 10:24:21;;;;;;;10.18;2.08;;;;;;;11.69;48.41;99642.19;5061953;28;20040;-81
2023/04/25 10:26:48;;;;;;;7.45;2.17;;;;;;;12.12;49.33;99638.31;5062702;28;20177;-85
2023/04/25 10:29:21;;;;;;;7.28;2.15;;;;;;;12.43;47.50;99643.66;5062916;28;20082;-82
2023/04/25 10:31:49;;;;;;;4.68;1.50;;;;;;;12.58;46.62;99650.97;5062082;28;20111;-82
2023/04/25 10:34:16;;;;;;;5.15;1.70;;;;;;;12.38;46.02;99646.41;5092858;28;20070;-86
2023/04/25 10:36:42;;;;;;;11.98;1.77;;;;;;;12.25;45.91;99637.72;5063499;28;20040;-86
2023/04/25 10:39:08;;;;;;;3.80;1.05;;;;;;;12.06;45.88;99642.91;5062868;28;20448;-86
2023/04/25 10:41:47;;;;;;;4.57;1.60;;;;;;;11.50;44.13;99655.59;5063903;28;20084;-78
2023/04/25 10:44:13;;;;;;;3.38;1.20;;;;;;;11.39;46.15;99652.84;5063151;28;20032;-82
2023/04/25 10:46:38;;;;;;;5.63;1.35;;;;;;;11.33;46.13;99651.22;5062054;28;20032;-82
2023/04/25 10:49:04;;;;;;;6.30;1.53;;;;;;;11.26;46.78;99662.41;5061862;28;20038;-83
2023/04/25 10:51:34;;;;;;;4.22;1.15;;;;;;;11.27;47.19;99661.31;5062459;28;20294;-80
2023/04/25 10:54:09;;;;;;;6.53;1.20;;;;;;;11.18;46.48;99660.22;5062587;28;20037;-84
2023/04/25 10:56:40;;;;;;;8.68;1.45;;;;;;;11.21;46.66;99654.22;5061889;28;20029;-83
2023/04/25 10:59:18;;;;;;;6.30;1.02;;;;;;;11.38;45.92;99659.41;5062443;28;20128;-82
2023/04/25 11:01:48;;;;;;;6.70;1.30;;;;;;;11.34;46.17;99655.59;5062277;28;20089;-83
2023/04/25 11:04:21;;;;;;;6.75;1.42;;;;;;;11.35;45.99;99659.16;5062169;28;20044;-80
2023/04/25 11:07:10;;;;;;;5.05;1.48;;;;;;;11.36;46.12;99664.31;5061631;28;20028;-81
2023/04/25 11:09:39;;;;;;;7.38;1.50;;;;;;;11.36;46.76;99660.78;5061821;28;21064;-84
2023/04/25 11:12:06;;;;;;;4.88;1.27;;;;;;;11.23;46.98;99668.41;5062209;28;20115;-83
2023/04/25 11:14:32;;;;;;;5.80;1.80;;;;;;;11.12;46.37;99658.56;5061717;28;20393;-84
2023/04/25 11:16:58;;;;;;;3.33;1.45;;;;;;;10.77;46.92;99660.97;5062700;28;20039;-83
2023/04/25 11:19:25;;;;;;;9.07;1.90;;;;;;;10.31;49.13;99682.31;5062849;28;20055;-82
2023/04/25 11:21:50;;;;;;;12.15;1.77;;;;;;;10.38;51.61;99687.50;5062222;28;20037;-83
2023/04/25 11:24:16;;;;;;;9.88;2.47;;;;;;;10.32;52.94;99689.38;5062043;28;20048;-83
2023/04/25 11:26:43;;;;;;;8.88;2.00;;;;;;;10.35;54.39;99694.28;5061027;28;20036;-83
2023/04/25 11:29:09;;;;;;;7.70;1.65;;;;;;;10.25;55.32;99702.44;5061480;28;20079;-83